createdAt,value
2018-08-24T00:02:27.027Z,81.12
2018-08-24T00:04:56.787Z,81.08
2018-08-24T00:07:26.670Z,81.23
2018-08-24T00:09:56.432Z,81.21
2018-08-24T00:12:26.240Z,81.09
2018-08-24T00:14:56.001Z,81.08
2018-08-24T00:17:31.772Z,80.41
2018-08-24T00:20:01.989Z,80.97
2018-08-24T00:22:31.698Z,80.86
2018-08-24T00:25:01.474Z,80.33
2018-08-24T00:27:31.194Z,80.02
2018-08-24T00:30:00.918Z,79.75
2018-08-24T00:32:30.620Z,79.98
2018-08-24T00:35:00.332Z,79.60
2018-08-24T00:37:30.048Z,80.06
2018-08-24T00:39:59.875Z,79.95
2018-08-24T00:42:29.626Z,79.44
2018-08-24T00:44:59.384Z,79.39
2018-08-24T00:47:29.139Z,79.25
2018-08-24T00:49:58.926Z,78.73
2018-08-24T00:52:28.662Z,78.82
2018-08-24T00:54:58.507Z,78.75
2018-08-24T00:57:28.236Z,78.20
2018-08-24T00:59:57.990Z,78.22
2018-08-24T01:02:27.368Z,78.21
2018-08-24T01:04:57.144Z,77.91
2018-08-24T01:07:26.899Z,77.91
2018-08-24T01:09:56.716Z,77.87
2018-08-24T01:12:26.420Z,77.36
2018-08-24T01:14:56.188Z,76.98
2018-08-24T01:17:30.989Z,76.98
2018-08-24T01:20:00.446Z,77.20
2018-08-24T01:22:30.132Z,77.66
2018-08-24T01:24:59.912Z,77.90
2018-08-24T01:27:29.356Z,77.36
2018-08-24T01:29:59.133Z,77.79
2018-08-24T01:32:28.836Z,77.45
2018-08-24T01:34:58.584Z,77.47
2018-08-24T01:37:28.276Z,77.66
2018-08-24T01:39:58.002Z,77.07
2018-08-24T01:42:27.695Z,77.08
2018-08-24T01:44:57.066Z,76.87
2018-08-24T01:47:26.766Z,76.87
2018-08-24T01:49:56.503Z,76.16
2018-08-24T01:52:26.232Z,76.60
2018-08-24T01:54:55.907Z,76.44
2018-08-24T01:57:26.103Z,76.51
2018-08-24T01:59:55.879Z,76.85
2018-08-24T02:02:25.563Z,76.67
2018-08-24T02:04:55.413Z,76.66
2018-08-24T02:07:25.119Z,76.75
2018-08-24T02:09:54.803Z,76.76
2018-08-24T02:12:29.575Z,76.71
2018-08-24T02:14:59.302Z,76.60
2018-08-24T02:17:33.963Z,76.40
2018-08-24T02:20:08.715Z,76.44
2018-08-24T02:22:38.432Z,76.75
2018-08-24T02:25:08.199Z,75.89
2018-08-24T02:27:38.004Z,75.85
2018-08-24T02:30:07.805Z,75.56
2018-08-24T02:32:37.615Z,75.63
2018-08-24T02:35:09.169Z,75.51
2018-08-24T02:37:38.943Z,76.06
2018-08-24T02:40:08.675Z,75.93
2018-08-24T02:42:38.377Z,75.33
2018-08-24T02:45:08.200Z,75.22
2018-08-24T02:47:38.028Z,75.33
2018-08-24T02:50:07.872Z,74.77
2018-08-24T02:52:37.679Z,74.43
2018-08-24T02:55:08.697Z,74.52
2018-08-24T02:57:38.534Z,74.53
2018-08-24T03:00:08.426Z,74.26
2018-08-24T03:02:38.199Z,75.05
2018-08-24T03:05:08.601Z,74.77
2018-08-24T03:07:38.289Z,75.39
2018-08-24T03:10:08.075Z,75.29
2018-08-24T03:12:37.867Z,75.34
2018-08-24T03:15:07.713Z,75.41
2018-08-24T03:17:42.574Z,75.94
2018-08-24T03:20:12.371Z,75.65
2018-08-24T03:22:42.095Z,75.40
2018-08-24T03:25:11.875Z,75.80
2018-08-24T03:27:41.619Z,76.03
2018-08-24T03:30:11.431Z,76.09
2018-08-24T03:32:41.198Z,76.21
2018-08-24T03:35:10.967Z,76.39
2018-08-24T03:37:40.835Z,76.69
2018-08-24T03:40:10.624Z,76.86
2018-08-24T03:42:40.379Z,76.59
2018-08-24T03:45:10.190Z,77.42
2018-08-24T03:47:40.107Z,76.87
2018-08-24T03:50:10.087Z,77.50
2018-08-24T03:52:39.843Z,77.52
2018-08-24T03:55:09.771Z,78.18
2018-08-24T03:57:39.127Z,77.61
2018-08-24T04:00:08.959Z,78.04
2018-08-24T04:02:38.667Z,77.42
2018-08-24T04:05:08.125Z,77.88
2018-08-24T04:07:37.911Z,77.69
2018-08-24T04:10:08.342Z,77.36
2018-08-24T04:12:38.256Z,77.54
2018-08-24T04:15:08.254Z,77.92
2018-08-24T04:17:42.774Z,77.41
2018-08-24T04:20:13.085Z,77.68
2018-08-24T04:22:43.113Z,77.01
2018-08-24T04:25:12.882Z,77.38
2018-08-24T04:27:42.650Z,76.94
2018-08-24T04:30:12.422Z,76.78
2018-08-24T04:32:42.361Z,76.42
2018-08-24T04:35:12.234Z,76.66
2018-08-24T04:37:42.076Z,76.91
2018-08-24T04:40:11.938Z,77.05
2018-08-24T04:42:41.311Z,76.84
2018-08-24T04:45:11.270Z,77.10
2018-08-24T04:47:41.079Z,76.49
2018-08-24T04:50:10.509Z,76.60
2018-08-24T04:52:39.843Z,75.99
2018-08-24T04:55:09.214Z,75.51
2018-08-24T04:57:38.662Z,75.53
2018-08-24T05:00:09.900Z,75.85
2018-08-24T05:02:39.622Z,76.77
2018-08-24T05:05:10.029Z,77.64
2018-08-24T05:07:39.453Z,76.99
2018-08-24T05:10:08.869Z,76.45
2018-08-24T05:12:38.232Z,76.27
2018-08-24T05:15:07.812Z,76.15
2018-08-24T05:17:38.179Z,75.68
2018-08-24T05:20:07.885Z,75.51
2018-08-24T05:22:37.529Z,75.36
2018-08-24T05:25:07.130Z,74.46
2018-08-24T05:27:37.257Z,73.56
2018-08-24T05:30:09.168Z,73.53
2018-08-24T05:32:38.867Z,73.25
2018-08-24T05:35:08.365Z,72.94
2018-08-24T05:37:38.244Z,72.69
2018-08-24T05:40:07.822Z,72.33
2018-08-24T05:42:37.969Z,72.01
2018-08-24T05:45:08.061Z,71.11
2018-08-24T05:47:37.761Z,69.77
2018-08-24T05:50:08.070Z,69.64
2018-08-24T05:52:37.766Z,69.22
2018-08-24T05:55:07.313Z,68.04
2018-08-24T05:57:37.441Z,67.30
2018-08-24T06:00:07.116Z,66.50
2018-08-24T06:02:36.523Z,66.79
2018-08-24T06:05:06.501Z,65.55
2018-08-24T06:07:36.384Z,65.80
2018-08-24T06:10:06.925Z,66.05
2018-08-24T06:12:36.705Z,65.95
2018-08-24T06:15:06.771Z,66.13
2018-08-24T06:17:41.924Z,66.10
2018-08-24T06:20:11.850Z,65.95
2018-08-24T06:22:41.938Z,66.40
2018-08-24T06:25:12.942Z,67.03
2018-08-24T06:27:43.334Z,67.79
2018-08-24T06:30:13.223Z,68.79
2018-08-24T06:32:43.268Z,68.11
2018-08-24T06:35:14.048Z,68.39
2018-08-24T06:37:44.031Z,68.12
2018-08-24T06:40:14.066Z,68.54
2018-08-24T06:42:43.935Z,68.07
2018-08-24T06:45:13.881Z,67.19
2018-08-24T06:47:44.098Z,66.94
2018-08-24T06:50:13.769Z,65.34
2018-08-24T06:52:43.882Z,64.52
2018-08-24T06:55:13.881Z,63.47
2018-08-24T06:57:43.785Z,63.52
2018-08-24T07:00:13.305Z,64.54
2018-08-24T07:02:42.805Z,64.76
2018-08-24T07:05:12.288Z,64.98
2018-08-24T07:07:41.869Z,64.63
2018-08-24T07:10:11.841Z,65.10
2018-08-24T07:12:41.821Z,66.21
2018-08-24T07:15:11.416Z,65.50
2018-08-24T07:17:46.189Z,65.90
2018-08-24T07:20:16.333Z,64.80
2018-08-24T07:22:46.977Z,64.07
2018-08-24T07:25:31.504Z,63.21
2018-08-24T07:28:01.022Z,62.71
2018-08-24T07:30:31.128Z,61.85
2018-08-24T07:33:01.141Z,62.83
2018-08-24T07:35:31.092Z,62.79
2018-08-24T07:38:01.186Z,63.25
2018-08-24T07:40:31.060Z,63.17
2018-08-24T07:43:00.991Z,63.18
2018-08-24T07:45:30.778Z,62.01
2018-08-24T07:48:00.334Z,62.63
2018-08-24T07:50:29.978Z,62.79
2018-08-24T07:52:59.496Z,62.49
2018-08-24T07:55:29.410Z,62.41
2018-08-24T07:57:59.834Z,61.66
2018-08-24T08:00:29.604Z,62.24
2018-08-24T08:02:59.184Z,61.27
2018-08-24T08:05:28.756Z,60.33
2018-08-24T08:07:58.317Z,60.21
2018-08-24T08:10:32.345Z,58.30
2018-08-24T08:13:02.301Z,57.32
2018-08-24T08:15:32.341Z,55.93
2018-08-24T08:18:02.353Z,53.90
2018-08-24T08:20:32.685Z,52.69
2018-08-24T08:23:02.593Z,53.06
2018-08-24T08:25:32.218Z,54.05
2018-08-24T08:28:01.745Z,54.58
2018-08-24T08:30:31.621Z,54.41
2018-08-24T08:33:01.543Z,54.82
2018-08-24T08:35:31.436Z,53.77
2018-08-24T08:38:01.289Z,53.57
2018-08-24T08:40:30.793Z,53.58
2018-08-24T08:43:00.265Z,54.07
2018-08-24T08:45:30.126Z,54.19
2018-08-24T08:47:59.910Z,54.76
2018-08-24T08:50:29.935Z,54.15
2018-08-24T08:53:00.298Z,54.84
2018-08-24T08:55:29.959Z,53.00
2018-08-24T08:57:59.535Z,52.23
2018-08-24T09:00:29.085Z,51.61
2018-08-24T09:02:59.749Z,51.64
2018-08-24T09:05:29.321Z,50.32
2018-08-24T09:07:59.284Z,49.95
2018-08-24T09:10:29.633Z,50.07
2018-08-24T09:13:00.995Z,50.12
2018-08-24T09:15:30.723Z,51.22
2018-08-24T09:18:05.959Z,51.22
2018-08-24T09:20:41.433Z,51.16
2018-08-24T09:23:16.307Z,52.94
2018-08-24T09:25:51.335Z,53.57
2018-08-24T09:28:26.669Z,51.77
2018-08-24T09:31:00.676Z,51.64
2018-08-24T09:33:30.213Z,50.83
2018-08-24T09:36:04.211Z,51.59
2018-08-24T09:38:34.448Z,53.06
2018-08-24T09:41:04.655Z,53.01
2018-08-24T09:43:39.749Z,51.60
2018-08-24T09:46:10.356Z,51.55
2018-08-24T09:48:46.064Z,51.71
2018-08-24T09:51:20.977Z,51.16
2018-08-24T09:53:56.049Z,52.65
2018-08-24T09:56:25.656Z,52.64
2018-08-24T09:58:55.655Z,51.68
2018-08-24T10:01:30.739Z,50.91
2018-08-24T10:04:05.669Z,50.69
2018-08-24T10:06:40.667Z,52.15
2018-08-24T10:09:13.136Z,51.29
2018-08-24T10:11:42.728Z,51.14
2018-08-24T10:14:13.104Z,52.41
2018-08-24T10:16:45.384Z,53.59
2018-08-24T10:19:16.076Z,52.90
2018-08-24T10:21:50.240Z,52.76
2018-08-24T10:24:20.233Z,52.84
2018-08-24T10:26:50.375Z,53.07
2018-08-24T10:29:20.106Z,51.99
2018-08-24T10:31:50.056Z,50.96
2018-08-24T10:34:20.590Z,51.42
2018-08-24T10:36:50.341Z,51.30
2018-08-24T10:39:20.504Z,50.27
2018-08-24T10:41:50.370Z,48.27
2018-08-24T10:44:20.320Z,46.95
2018-08-24T10:46:50.371Z,47.43
2018-08-24T10:49:20.535Z,48.51
2018-08-24T10:51:50.416Z,48.39
2018-08-24T10:54:21.556Z,47.13
2018-08-24T10:56:51.629Z,48.31
2018-08-24T10:59:21.524Z,47.11
2018-08-24T11:01:51.407Z,46.83
2018-08-24T11:04:21.305Z,45.94
2018-08-24T11:09:47.853Z,44.20
2018-08-24T11:12:47.376Z,44.62
2018-08-24T11:15:51.550Z,43.35
2018-08-24T11:18:21.456Z,42.93
2018-08-24T11:20:51.229Z,43.98
2018-08-24T11:23:20.867Z,43.91
2018-08-24T11:25:50.915Z,42.91
2018-08-24T11:28:20.533Z,42.61
2018-08-24T11:30:50.871Z,43.56
2018-08-24T11:33:21.720Z,43.40
2018-08-24T11:35:51.550Z,43.07
2018-08-24T11:38:21.594Z,42.97
2018-08-24T11:40:51.377Z,42.44
2018-08-24T11:43:23.119Z,43.66
2018-08-24T11:45:52.898Z,43.79
2018-08-24T11:48:22.729Z,44.00
2018-08-24T11:50:52.324Z,44.07
2018-08-24T11:53:22.251Z,44.17
2018-08-24T11:55:52.003Z,44.34
2018-08-24T11:58:22.323Z,44.79
2018-08-24T12:00:52.061Z,44.74
2018-08-24T12:03:21.865Z,44.85
2018-08-24T12:05:51.714Z,44.72
2018-08-24T12:08:21.531Z,43.20
2018-08-24T12:10:51.405Z,43.64
2018-08-24T12:13:21.388Z,43.60
2018-08-24T12:15:51.941Z,42.54
2018-08-24T12:18:22.143Z,41.20
2018-08-24T12:20:52.102Z,41.36
2018-08-24T12:23:21.785Z,42.07
2018-08-24T12:25:51.466Z,42.55
2018-08-24T12:28:21.132Z,42.94
2018-08-24T12:30:50.873Z,41.49
2018-08-24T12:33:20.936Z,41.61
2018-08-24T12:35:50.552Z,41.37
2018-08-24T12:38:20.562Z,40.51
2018-08-24T12:40:50.643Z,40.69
2018-08-24T12:43:20.631Z,40.83
2018-08-24T12:45:50.431Z,41.56
2018-08-24T12:48:20.020Z,41.27
2018-08-24T12:50:49.948Z,41.89
2018-08-24T12:53:20.355Z,42.87
2018-08-24T12:55:50.576Z,44.32
2018-08-24T12:58:20.191Z,45.29
2018-08-24T13:00:50.167Z,46.35
2018-08-24T13:03:20.144Z,47.31
2018-08-24T13:05:50.124Z,48.46
2018-08-24T13:08:20.247Z,48.88
2018-08-24T13:10:49.711Z,47.54
2018-08-24T13:13:19.508Z,47.54
2018-08-24T13:15:49.087Z,47.34
2018-08-24T13:18:19.325Z,46.33
2018-08-24T13:20:48.883Z,46.85
2018-08-24T13:23:18.764Z,46.39
2018-08-24T13:25:48.747Z,46.49
2018-08-24T13:28:18.560Z,44.96
2018-08-24T13:30:50.059Z,45.53
2018-08-24T13:33:19.650Z,45.18
2018-08-24T13:35:49.259Z,45.69
2018-08-24T13:38:19.275Z,46.38
2018-08-24T13:40:48.852Z,46.55
2018-08-24T13:43:18.847Z,46.40
2018-08-24T13:45:49.041Z,46.10
2018-08-24T13:48:18.777Z,46.61
2018-08-24T13:50:48.304Z,46.47
2018-08-24T13:53:18.079Z,46.50
2018-08-24T13:55:48.643Z,46.89
2018-08-24T13:58:19.583Z,46.54
2018-08-24T14:00:49.476Z,46.40
2018-08-24T14:03:20.279Z,45.81
2018-08-24T14:05:50.733Z,46.17
2018-08-24T14:08:22.290Z,45.39
2018-08-24T14:10:52.375Z,45.35
2018-08-24T14:13:24.915Z,45.55
2018-08-24T14:15:54.595Z,44.64
2018-08-24T14:18:24.523Z,44.82
2018-08-24T14:20:55.130Z,44.51
2018-08-24T14:23:24.676Z,44.99
2018-08-24T14:25:54.563Z,44.04
2018-08-24T14:28:24.978Z,43.27
2018-08-24T14:30:55.359Z,42.95
2018-08-24T14:33:25.479Z,44.54
2018-08-24T14:35:55.569Z,44.63
2018-08-24T14:38:26.069Z,44.24
2018-08-24T14:40:55.734Z,45.15
2018-08-24T14:43:25.430Z,44.71
2018-08-24T14:45:55.270Z,45.34
2018-08-24T14:48:25.016Z,45.47
2018-08-24T14:50:55.215Z,45.34
2018-08-24T14:53:25.239Z,44.56
2018-08-24T14:55:54.784Z,43.34
2018-08-24T14:58:24.898Z,42.47
2018-08-24T15:00:54.410Z,42.26
2018-08-24T15:03:24.134Z,43.17
2018-08-24T15:05:53.830Z,41.67
2018-08-24T15:08:23.347Z,42.55
2018-08-24T15:10:54.498Z,42.05
2018-08-24T15:13:23.932Z,41.72
2018-08-24T15:15:53.734Z,40.79
2018-08-24T15:18:23.342Z,41.34
2018-08-24T15:20:53.343Z,40.89
2018-08-24T15:23:23.182Z,41.26
2018-08-24T15:25:52.942Z,41.39
2018-08-24T15:28:24.196Z,40.82
2018-08-24T15:30:54.018Z,41.48
2018-08-24T15:33:23.485Z,42.10
2018-08-24T15:35:53.358Z,40.73
2018-08-24T15:38:25.034Z,41.42
2018-08-24T15:40:55.702Z,40.96
2018-08-24T15:43:27.286Z,42.59
2018-08-24T15:45:59.181Z,42.27
2018-08-24T15:48:30.717Z,42.82
2018-08-24T15:51:03.042Z,42.96
2018-08-24T15:53:35.654Z,43.46
2018-08-24T15:56:08.132Z,43.60
2018-08-24T15:58:47.987Z,43.35
2018-08-24T16:01:18.435Z,44.35
2018-08-24T16:03:50.072Z,44.46
2018-08-24T16:06:21.644Z,45.37
2018-08-24T16:08:51.581Z,46.33
2018-08-24T16:11:22.607Z,46.23
2018-08-24T16:13:54.209Z,46.62
2018-08-24T16:16:26.252Z,46.87
2018-08-24T16:18:56.897Z,46.85
2018-08-24T16:21:28.084Z,47.41
2018-08-24T16:23:58.965Z,47.29
2018-08-24T16:26:32.237Z,47.08
2018-08-24T16:29:03.556Z,47.13
2018-08-24T16:31:33.347Z,47.52
2018-08-24T16:34:06.352Z,47.21
2018-08-24T16:36:39.494Z,47.82
2018-08-24T16:39:10.653Z,47.52
2018-08-24T16:41:42.250Z,47.04
2018-08-24T16:44:15.869Z,46.47
2018-08-24T16:46:50.767Z,46.27
2018-08-24T16:49:38.667Z,46.23
2018-08-24T16:55:07.448Z,45.38
2018-08-24T16:57:41.381Z,44.51
2018-08-24T17:00:17.275Z,44.59
2018-08-24T17:02:51.567Z,44.38
2018-08-24T17:05:24.447Z,44.46
2018-08-24T17:07:59.627Z,45.28
2018-08-24T17:10:30.636Z,46.28
2018-08-24T17:13:00.758Z,45.58
2018-08-24T17:15:30.437Z,45.71
2018-08-24T17:17:59.857Z,45.52
2018-08-24T17:20:29.635Z,46.55
2018-08-24T17:22:59.448Z,47.13
2018-08-24T17:25:28.844Z,45.79
2018-08-24T17:27:58.559Z,46.39
2018-08-24T17:30:27.915Z,47.04
2018-08-24T17:32:57.352Z,48.11
2018-08-24T17:35:26.774Z,48.31
2018-08-24T17:37:56.180Z,47.82
2018-08-24T17:40:27.910Z,48.08
2018-08-24T17:42:58.295Z,47.45
2018-08-24T17:45:28.036Z,47.80
2018-08-24T17:47:58.527Z,48.23
2018-08-24T17:50:28.780Z,48.09
2018-08-24T17:52:58.314Z,48.24
2018-08-24T17:55:30.609Z,48.41
2018-08-24T17:58:00.284Z,48.67
2018-08-24T18:00:30.434Z,49.52
2018-08-24T18:03:00.285Z,49.19
2018-08-24T18:05:29.925Z,49.61
2018-08-24T18:08:00.168Z,50.04
2018-08-24T18:10:29.920Z,49.94
2018-08-24T18:12:59.892Z,50.05
2018-08-24T18:15:30.655Z,50.04
2018-08-24T18:18:01.430Z,50.28
2018-08-24T18:20:31.254Z,50.42
2018-08-24T18:23:03.956Z,50.68
2018-08-24T18:25:34.636Z,51.04
2018-08-24T18:28:06.963Z,51.39
2018-08-24T18:30:39.101Z,51.56
2018-08-24T18:33:13.979Z,51.72
2018-08-24T18:35:57.944Z,52.37
2018-08-24T18:38:28.499Z,52.49
2018-08-24T18:41:02.314Z,52.96
2018-08-24T18:43:33.947Z,53.92
2018-08-24T18:46:06.472Z,54.25
2018-08-24T18:48:36.450Z,54.91
2018-08-24T18:51:08.773Z,54.99
2018-08-24T18:53:46.153Z,56.90
2018-08-24T18:56:16.954Z,56.55
2018-08-24T18:58:48.603Z,56.13
2018-08-24T19:01:18.491Z,56.58
2018-08-24T19:03:49.321Z,57.88
2018-08-24T19:06:19.881Z,57.92
2018-08-24T19:08:51.143Z,57.64
2018-08-24T19:11:27.844Z,58.59
2018-08-24T19:13:59.401Z,59.08
2018-08-24T19:16:29.379Z,59.97
2018-08-24T19:19:04.139Z,60.11
2018-08-24T19:21:39.904Z,59.48
2018-08-24T19:24:15.869Z,58.60
2018-08-24T19:26:45.760Z,58.42
2018-08-24T19:29:20.527Z,58.54
2018-08-24T19:31:50.437Z,58.47
2018-08-24T19:34:20.385Z,59.47
2018-08-24T19:36:49.939Z,59.16
2018-08-24T19:39:20.448Z,60.09
2018-08-24T19:41:56.123Z,60.06
2018-08-24T19:44:28.581Z,60.24
2018-08-24T19:46:59.443Z,60.37
2018-08-24T19:49:29.758Z,60.80
2018-08-24T19:52:00.044Z,61.85
2018-08-24T19:54:31.830Z,62.63
2018-08-24T19:58:06.345Z,62.09
2018-08-24T20:00:36.249Z,63.08
2018-08-24T20:03:06.262Z,64.25
2018-08-24T20:05:36.963Z,63.14
2018-08-24T20:08:12.285Z,63.45
2018-08-24T20:10:43.283Z,63.60
2018-08-24T20:13:13.678Z,63.70
2018-08-24T20:15:48.993Z,63.99
2018-08-24T20:18:18.856Z,63.91
2018-08-24T20:20:48.606Z,63.83
2018-08-24T20:23:18.714Z,63.83
2018-08-24T20:25:49.407Z,64.42
2018-08-24T20:28:19.715Z,64.49
2018-08-24T20:30:49.686Z,64.39
2018-08-24T20:33:20.005Z,64.14
2018-08-24T20:35:50.547Z,64.20
2018-08-24T20:38:20.959Z,64.12
2018-08-24T20:40:50.728Z,64.08
2018-08-24T20:43:20.651Z,64.12
2018-08-24T20:45:50.979Z,63.81
2018-08-24T20:48:21.004Z,63.57
2018-08-24T20:50:50.670Z,63.95
2018-08-24T20:53:20.467Z,64.04
2018-08-24T20:55:50.501Z,63.35
2018-08-24T20:58:20.826Z,63.31
2018-08-24T21:00:50.747Z,63.26
2018-08-24T21:03:21.174Z,62.92
2018-08-24T21:05:51.871Z,63.56
2018-08-24T21:08:21.961Z,62.93
2018-08-24T21:10:52.461Z,63.41
2018-08-24T21:13:22.896Z,63.68
2018-08-24T21:15:53.118Z,62.98
2018-08-24T21:18:23.429Z,63.07
2018-08-24T21:20:53.564Z,62.85
2018-08-24T21:23:23.942Z,62.63
2018-08-24T21:25:53.836Z,62.66
2018-08-24T21:28:23.748Z,61.94
2018-08-24T21:30:54.898Z,61.60
2018-08-24T21:33:26.177Z,61.03
2018-08-24T21:35:56.387Z,61.19
2018-08-24T21:38:26.449Z,61.20
2018-08-24T21:40:56.574Z,60.93
2018-08-24T21:43:26.329Z,60.77
2018-08-24T21:45:56.463Z,60.90
2018-08-24T21:48:26.469Z,60.76
2018-08-24T21:50:56.759Z,60.69
2018-08-24T21:53:26.535Z,60.87
2018-08-24T21:55:56.898Z,60.28
2018-08-24T21:58:27.311Z,60.46
2018-08-24T22:00:57.680Z,60.19
2018-08-24T22:03:27.448Z,60.12
2018-08-24T22:05:57.315Z,60.03
2018-08-24T22:08:27.282Z,60.21
2018-08-24T22:10:57.086Z,59.80
2018-08-24T22:13:27.246Z,58.92
2018-08-24T22:16:07.843Z,59.31
2018-08-24T22:18:51.005Z,58.74
2018-08-24T22:21:38.740Z,58.88
2018-08-24T22:24:24.029Z,58.23
2018-08-24T22:27:08.327Z,58.31
2018-08-24T22:29:52.043Z,58.11
2018-08-24T22:32:33.402Z,58.01
2018-08-24T22:35:23.262Z,55.88
2018-08-24T22:38:07.229Z,54.41
2018-08-24T22:40:51.753Z,53.82
2018-08-24T22:43:37.676Z,52.84
2018-08-24T22:46:21.554Z,52.32
2018-08-24T22:49:08.113Z,51.67
2018-08-24T22:51:49.309Z,50.92
2018-08-24T22:54:32.585Z,49.93
2018-08-24T22:57:22.587Z,49.06
2018-08-24T23:00:05.944Z,49.05
2018-08-24T23:02:56.651Z,49.78
2018-08-24T23:05:46.448Z,49.82
2018-08-24T23:08:30.092Z,49.14
2018-08-24T23:11:15.187Z,49.33
2018-08-24T23:14:03.969Z,49.95
2018-08-24T23:16:47.371Z,49.46
2018-08-24T23:19:30.999Z,49.95
2018-08-24T23:22:14.993Z,51.42
2018-08-24T23:24:58.963Z,51.45
2018-08-24T23:27:41.961Z,51.60
2018-08-24T23:30:28.987Z,51.83
2018-08-24T23:33:13.976Z,52.48
2018-08-24T23:35:58.373Z,53.20
2018-08-24T23:38:41.556Z,54.85
2018-08-24T23:41:25.049Z,55.68
2018-08-24T23:44:13.159Z,59.50
2018-08-24T23:47:00.857Z,59.45
2018-08-24T23:49:45.181Z,59.44
2018-08-24T23:52:29.569Z,58.81
2018-08-24T23:55:13.615Z,59.02
2018-08-24T23:57:59.485Z,59.97
